Time;durP1;ratioP1;P1;durP2;ratioP2;P2;SDS_P1;SDS_P2;PMS_P1;PMS_P2;Temp;Humidity;BMP_temperature;BMP_pressure;BME280_temperature;BME280_humidity;BME280_pressure;Samples;Min_cycle;Max_cycle;Signal;HPM_P1;HPM_P2
2021/08/22 00:00:57;;;;;;;10.75;6.70;;;25.40;52.00;;;;;;4186805;28;20045;-56
2021/08/22 00:03:00;;;;;;;7.10;6.07;;;25.40;52.00;;;;;;4183630;28;20053;-57
2021/08/22 00:05:03;;;;;;;9.25;6.72;;;25.40;51.90;;;;;;4183689;28;20053;-57
2021/08/22 00:07:05;;;;;;;8.18;5.80;;;25.40;51.90;;;;;;4183499;28;20045;-57
2021/08/22 00:09:07;;;;;;;9.77;5.57;;;25.40;51.90;;;;;;4183488;28;20052;-56
2021/08/22 00:11:09;;;;;;;9.50;6.32;;;25.40;51.80;;;;;;4183388;28;20054;-55
2021/08/22 00:13:11;;;;;;;8.50;5.72;;;25.40;51.80;;;;;;4182955;28;20050;-56
2021/08/22 00:15:13;;;;;;;15.52;6.75;;;25.40;51.80;;;;;;4182602;28;20101;-56
2021/08/22 00:17:15;;;;;;;9.45;6.53;;;25.40;51.80;;;;;;4182617;28;20095;-55
2021/08/22 00:19:17;;;;;;;8.25;6.22;;;25.40;51.80;;;;;;4182541;28;20041;-55
2021/08/22 00:21:19;;;;;;;9.35;6.40;;;25.40;51.80;;;;;;4182656;28;20049;-55
2021/08/22 00:23:21;;;;;;;7.20;5.53;;;25.40;51.80;;;;;;4182578;28;20124;-55
2021/08/22 00:25:23;;;;;;;7.25;5.35;;;25.40;51.90;;;;;;4182562;28;20061;-56
2021/08/22 00:27:26;;;;;;;5.57;5.00;;;25.40;51.90;;;;;;4182632;28;20140;-55
2021/08/22 00:29:27;;;;;;;8.90;5.55;;;25.40;51.90;;;;;;4182391;28;20061;-55
2021/08/22 00:31:29;;;;;;;6.32;5.70;;;25.40;52.00;;;;;;4182503;28;20148;-55
2021/08/22 00:33:31;;;;;;;8.23;5.22;;;25.30;52.00;;;;;;4182324;28;20049;-53
2021/08/22 00:35:33;;;;;;;7.10;5.30;;;25.40;52.00;;;;;;4182374;28;20049;-55
2021/08/22 00:37:35;;;;;;;8.25;5.57;;;25.40;52.00;;;;;;4182524;28;20071;-55
2021/08/22 00:39:37;;;;;;;9.88;5.90;;;25.40;52.10;;;;;;4182479;28;20053;-52
2021/08/22 00:41:40;;;;;;;10.95;5.20;;;25.40;52.10;;;;;;4182366;28;20059;-55
2021/08/22 00:43:45;;;;;;;5.85;4.68;;;25.30;52.10;;;;;;4182201;28;20076;-53
2021/08/22 00:45:47;;;;;;;6.40;4.50;;;25.40;52.10;;;;;;4182227;28;20120;-54
2021/08/22 00:47:50;;;;;;;5.38;4.25;;;25.40;52.10;;;;;;4182111;28;20053;-55
2021/08/22 00:49:52;;;;;;;7.38;3.92;;;25.30;52.00;;;;;;4182376;28;20058;-54
2021/08/22 00:51:54;;;;;;;4.28;3.78;;;25.30;52.10;;;;;;4182313;28;20055;-49
2021/08/22 00:53:56;;;;;;;7.75;3.95;;;25.30;52.00;;;;;;4182196;28;20049;-53
2021/08/22 00:56:03;;;;;;;6.85;4.45;;;25.30;52.10;;;;;;4182294;28;20048;-54
2021/08/22 00:58:05;;;;;;;7.35;4.20;;;25.30;52.10;;;;;;4182296;28;20052;-54
2021/08/22 01:00:09;;;;;;;6.53;3.67;;;25.30;52.10;;;;;;4182312;28;20113;-55
2021/08/22 01:02:25;;;;;;;5.55;3.50;;;25.30;52.00;;;;;;4182186;28;20072;-55
2021/08/22 01:04:38;;;;;;;6.07;3.78;;;25.30;52.10;;;;;;4182312;28;20052;-54
2021/08/22 01:06:49;;;;;;;6.30;3.90;;;25.30;52.10;;;;;;4182595;28;20113;-55
2021/08/22 01:09:02;;;;;;;5.30;3.63;;;25.30;52.10;;;;;;4182571;28;20045;-55
2021/08/22 01:11:35;;;;;;;5.82;3.90;;;25.30;52.10;;;;;;4182477;28;20045;-55
2021/08/22 01:13:43;;;;;;;6.68;4.03;;;25.30;52.20;;;;;;4181248;28;20045;-54
2021/08/22 01:15:50;;;;;;;6.18;3.55;;;25.30;52.20;;;;;;4182364;28;20104;-52
2021/08/22 01:17:54;;;;;;;5.65;3.58;;;25.30;52.20;;;;;;4182338;28;20054;-54
2021/08/22 01:20:15;;;;;;;6.88;3.60;;;25.30;52.20;;;;;;4182353;28;20049;-54
2021/08/22 01:22:19;;;;;;;10.68;4.28;;;25.30;52.20;;;;;;4182306;28;20045;-56
2021/08/22 01:24:24;;;;;;;4.07;3.63;;;25.30;52.20;;;;;;4182437;28;20046;-54
2021/08/22 01:26:29;;;;;;;5.53;4.03;;;25.30;52.20;;;;;;4182497;28;20049;-55
2021/08/22 01:28:31;;;;;;;10.68;3.95;;;25.20;52.20;;;;;;4182340;28;20103;-55
2021/08/22 01:30:43;;;;;;;4.85;3.80;;;25.20;52.30;;;;;;4182491;28;20050;-55
2021/08/22 01:32:48;;;;;;;6.30;3.72;;;25.20;52.30;;;;;;4182328;28;20465;-54
2021/08/22 01:34:51;;;;;;;4.82;3.50;;;25.20;52.30;;;;;;4182152;28;20046;-55
2021/08/22 01:36:55;;;;;;;5.55;4.18;;;25.20;52.30;;;;;;4181459;28;20049;-52
2021/08/22 01:38:57;;;;;;;5.63;3.78;;;25.20;52.30;;;;;;4182211;28;20041;-55
2021/08/22 01:41:00;;;;;;;5.70;3.65;;;25.20;52.40;;;;;;4182101;28;20056;-52
2021/08/22 01:43:03;;;;;;;6.35;3.65;;;25.20;52.40;;;;;;4182288;28;20076;-55
2021/08/22 01:45:07;;;;;;;4.10;3.30;;;25.20;52.40;;;;;;4182199;28;20046;-54
2021/08/22 01:47:10;;;;;;;4.25;3.70;;;25.20;52.40;;;;;;4182197;28;20080;-55
2021/08/22 01:49:13;;;;;;;4.65;3.47;;;25.20;52.40;;;;;;4181918;28;20073;-53
2021/08/22 01:51:15;;;;;;;4.93;4.10;;;25.20;52.40;;;;;;4181710;28;20117;-55
2021/08/22 01:53:17;;;;;;;6.25;3.85;;;25.20;52.40;;;;;;4181991;28;20041;-54
2021/08/22 01:55:19;;;;;;;8.45;4.63;;;25.10;52.50;;;;;;4182102;28;20042;-49
2021/08/22 01:57:21;;;;;;;6.10;4.10;;;25.20;52.40;;;;;;4181803;28;20114;-52
2021/08/22 01:59:23;;;;;;;4.82;3.90;;;25.20;52.50;;;;;;4184077;28;20060;-54
2021/08/22 02:01:26;;;;;;;5.22;3.50;;;25.20;52.50;;;;;;4184896;28;20049;-53
2021/08/22 02:03:41;;;;;;;5.60;4.05;;;25.20;52.60;;;;;;4184812;28;20049;-52
2021/08/22 02:05:48;;;;;;;7.50;3.95;;;25.10;52.60;;;;;;4184928;28;20056;-55
2021/08/22 02:07:51;;;;;;;5.25;3.40;;;25.10;52.60;;;;;;4184833;28;20053;-55
2021/08/22 02:10:19;;;;;;;5.40;3.70;;;25.10;52.60;;;;;;4184714;28;20053;-53
2021/08/22 02:12:22;;;;;;;4.55;3.60;;;25.10;52.60;;;;;;4184495;28;20557;-54
2021/08/22 02:14:25;;;;;;;6.32;4.05;;;25.20;52.60;;;;;;4184592;28;20052;-53
2021/08/22 02:16:29;;;;;;;4.85;3.45;;;25.20;52.60;;;;;;4184517;28;20055;-53
2021/08/22 02:18:33;;;;;;;6.25;4.47;;;25.20;52.60;;;;;;4184490;28;20069;-54
2021/08/22 02:20:36;;;;;;;5.93;3.97;;;25.10;52.60;;;;;;4184562;28;20080;-54
2021/08/22 02:22:42;;;;;;;6.07;3.90;;;25.20;52.60;;;;;;4184357;28;20076;-56
2021/08/22 02:24:44;;;;;;;6.63;3.75;;;25.10;52.70;;;;;;4184404;28;20080;-53
2021/08/22 02:26:46;;;;;;;5.32;4.38;;;25.10;52.70;;;;;;4184609;28;20052;-53
2021/08/22 02:28:55;;;;;;;6.85;5.28;;;25.10;52.70;;;;;;4184440;28;20059;-54
2021/08/22 02:30:57;;;;;;;5.75;4.78;;;25.10;52.70;;;;;;4184538;28;20046;-51
2021/08/22 02:33:00;;;;;;;5.53;4.53;;;25.10;52.80;;;;;;4184245;28;20080;-54
2021/08/22 02:35:02;;;;;;;6.03;5.10;;;25.10;52.80;;;;;;4184258;28;20104;-54
2021/08/22 02:37:04;;;;;;;9.13;5.95;;;25.00;52.80;;;;;;4184342;28;20045;-53
2021/08/22 02:39:06;;;;;;;9.38;5.72;;;25.10;52.80;;;;;;4184359;28;20080;-54
2021/08/22 02:41:08;;;;;;;7.38;5.68;;;25.00;52.80;;;;;;4184493;28;20055;-55
2021/08/22 02:43:10;;;;;;;11.93;5.75;;;25.00;52.80;;;;;;4184377;28;20061;-50
2021/08/22 02:45:12;;;;;;;8.68;4.90;;;25.10;52.80;;;;;;4184407;28;20045;-55
2021/08/22 02:47:15;;;;;;;6.53;5.32;;;25.00;52.90;;;;;;4184304;28;20076;-55
2021/08/22 02:49:16;;;;;;;7.13;5.05;;;25.10;52.90;;;;;;4184218;28;20050;-53
2021/08/22 02:51:19;;;;;;;7.07;5.25;;;25.10;52.90;;;;;;4183575;28;20053;-52
2021/08/22 02:53:21;;;;;;;8.02;4.93;;;25.00;52.90;;;;;;4184515;28;20060;-52
2021/08/22 02:55:23;;;;;;;8.05;5.63;;;25.00;52.90;;;;;;4184331;28;20050;-52
2021/08/22 02:57:25;;;;;;;9.98;5.97;;;25.00;52.80;;;;;;4184042;28;20049;-53
2021/08/22 02:59:27;;;;;;;8.55;5.28;;;25.00;52.80;;;;;;4184103;28;20045;-52
2021/08/22 03:01:28;;;;;;;9.88;5.38;;;25.00;52.80;;;;;;4184172;28;20072;-55
2021/08/22 03:03:31;;;;;;;7.25;5.03;;;25.10;52.80;;;;;;4184095;28;20064;-55
2021/08/22 03:05:33;;;;;;;8.57;5.68;;;25.00;52.80;;;;;;4184004;28;20050;-54
2021/08/22 03:07:35;;;;;;;6.93;5.22;;;25.00;52.80;;;;;;4183779;28;20045;-57
2021/08/22 03:09:37;;;;;;;8.70;4.95;;;25.00;52.80;;;;;;4183610;28;20045;-55
2021/08/22 03:11:39;;;;;;;7.82;5.05;;;25.00;52.80;;;;;;4183590;28;20056;-54
2021/08/22 03:13:41;;;;;;;7.15;4.90;;;25.00;52.90;;;;;;4183677;28;20084;-57
2021/08/22 03:15:43;;;;;;;7.13;4.38;;;25.00;52.90;;;;;;4183628;28;20045;-56
2021/08/22 03:17:45;;;;;;;9.55;4.82;;;25.00;53.00;;;;;;4183699;28;20046;-55
2021/08/22 03:19:47;;;;;;;8.10;5.18;;;25.00;53.00;;;;;;4183714;28;20046;-53
2021/08/22 03:21:49;;;;;;;8.45;4.82;;;25.00;53.00;;;;;;4183477;28;20045;-53
2021/08/22 03:23:51;;;;;;;9.98;5.03;;;25.00;53.00;;;;;;4183759;28;20050;-51
2021/08/22 03:25:53;;;;;;;7.32;5.25;;;25.00;53.00;;;;;;4183672;28;20049;-55
2021/08/22 03:27:55;;;;;;;8.70;4.65;;;25.00;53.10;;;;;;4183601;28;20049;-54
2021/08/22 03:29:57;;;;;;;7.00;5.10;;;25.00;53.00;;;;;;4183443;28;20079;-53
2021/08/22 03:31:59;;;;;;;6.53;5.13;;;25.00;53.10;;;;;;4183620;28;20057;-54
2021/08/22 03:34:01;;;;;;;8.32;5.55;;;25.00;53.10;;;;;;4183577;28;20055;-55
2021/08/22 03:36:04;;;;;;;10.65;5.80;;;24.90;53.10;;;;;;4183616;28;20045;-50
2021/08/22 03:38:06;;;;;;;7.13;6.07;;;25.00;53.00;;;;;;4183435;28;20045;-49
2021/08/22 03:40:09;;;;;;;9.68;5.85;;;24.90;53.00;;;;;;4183433;28;20052;-53
2021/08/22 03:42:11;;;;;;;8.90;5.80;;;24.90;52.90;;;;;;4183354;28;20045;-54
2021/08/22 03:44:13;;;;;;;8.15;5.72;;;24.90;52.90;;;;;;4183576;28;20049;-54
2021/08/22 03:46:15;;;;;;;11.02;6.97;;;25.00;52.90;;;;;;4183628;28;20079;-52
2021/08/22 03:48:17;;;;;;;13.15;8.98;;;24.90;52.80;;;;;;4183717;28;20083;-55
2021/08/22 03:50:19;;;;;;;11.38;9.68;;;25.00;52.80;;;;;;4183551;28;20053;-54
2021/08/22 03:52:21;;;;;;;14.13;8.75;;;24.90;52.70;;;;;;4183428;28;20088;-53
2021/08/22 03:54:23;;;;;;;10.73;7.70;;;24.90;52.70;;;;;;4183370;28;20052;-54
2021/08/22 03:56:25;;;;;;;8.30;6.80;;;24.90;52.70;;;;;;4182531;28;20072;-53
2021/08/22 03:58:27;;;;;;;10.77;7.00;;;24.90;52.60;;;;;;4183396;28;20045;-53
2021/08/22 04:00:29;;;;;;;8.50;6.38;;;24.90;52.60;;;;;;4183420;28;20072;-51
2021/08/22 04:02:31;;;;;;;7.90;5.75;;;24.90;52.60;;;;;;4183373;28;20097;-53
2021/08/22 04:04:33;;;;;;;7.30;5.75;;;25.00;52.60;;;;;;4183201;28;20513;-50
2021/08/22 04:06:37;;;;;;;15.52;6.45;;;25.00;52.60;;;;;;4183124;28;20115;-54
2021/08/22 04:08:39;;;;;;;9.77;6.30;;;24.90;52.50;;;;;;4183156;28;20060;-52
2021/08/22 04:10:43;;;;;;;8.30;5.50;;;24.90;52.50;;;;;;4183010;28;20057;-51
2021/08/22 04:12:45;;;;;;;8.88;5.70;;;24.90;52.50;;;;;;4182625;28;20054;-53
2021/08/22 04:14:47;;;;;;;9.95;5.85;;;24.90;52.50;;;;;;4182822;28;20076;-53
2021/08/22 04:16:49;;;;;;;8.00;6.22;;;24.90;52.60;;;;;;4182871;28;20395;-55
2021/08/22 04:18:52;;;;;;;10.45;5.50;;;24.90;52.50;;;;;;4182795;28;20049;-51
2021/08/22 04:20:54;;;;;;;9.70;5.60;;;24.90;52.60;;;;;;4182381;28;20075;-54
2021/08/22 04:22:56;;;;;;;11.65;7.10;;;24.90;52.60;;;;;;4182856;28;20053;-53
2021/08/22 04:24:59;;;;;;;12.05;7.60;;;24.90;52.60;;;;;;4182801;28;20111;-50
2021/08/22 04:27:02;;;;;;;10.32;8.00;;;24.90;52.60;;;;;;4182783;28;20057;-52
2021/08/22 04:29:04;;;;;;;12.05;8.88;;;24.90;52.60;;;;;;4182688;28;20049;-52
2021/08/22 04:31:06;;;;;;;11.45;7.90;;;24.90;52.60;;;;;;4182639;28;20053;-53
2021/08/22 04:33:09;;;;;;;11.70;8.05;;;24.90;52.50;;;;;;4182627;28;20080;-53
2021/08/22 04:35:11;;;;;;;9.75;7.82;;;24.90;52.60;;;;;;4182546;28;20072;-52
2021/08/22 04:37:13;;;;;;;10.43;6.78;;;24.90;52.60;;;;;;4182428;28;20049;-57
2021/08/22 04:39:16;;;;;;;10.38;7.68;;;24.90;52.50;;;;;;4182493;28;20045;-56
2021/08/22 04:41:19;;;;;;;11.80;7.00;;;24.90;52.60;;;;;;4182443;28;20055;-56
2021/08/22 04:43:25;;;;;;;10.82;7.15;;;24.90;52.60;;;;;;4182435;28;20053;-56
2021/08/22 04:45:27;;;;;;;8.60;6.90;;;24.90;52.60;;;;;;4182207;28;20083;-57
2021/08/22 04:47:29;;;;;;;8.73;7.10;;;24.90;52.60;;;;;;4182489;28;20041;-56
2021/08/22 04:49:31;;;;;;;8.85;6.80;;;24.90;52.60;;;;;;4182360;28;20081;-56
2021/08/22 04:51:33;;;;;;;9.68;6.43;;;24.90;52.60;;;;;;4182591;28;20046;-55
2021/08/22 04:53:35;;;;;;;11.20;7.25;;;24.90;52.60;;;;;;4182366;28;20124;-56
2021/08/22 04:55:37;;;;;;;13.32;8.13;;;24.90;52.60;;;;;;4182230;28;20073;-56
2021/08/22 04:57:39;;;;;;;15.15;8.88;;;24.90;52.50;;;;;;4182323;28;20045;-55
2021/08/22 04:59:41;;;;;;;12.57;8.55;;;24.90;52.60;;;;;;4182361;28;20049;-54
2021/08/22 05:01:43;;;;;;;10.88;8.18;;;24.90;52.60;;;;;;4182249;28;20065;-53
2021/08/22 05:03:46;;;;;;;12.48;7.45;;;24.90;52.60;;;;;;4182087;28;20052;-56
2021/08/22 05:05:48;;;;;;;11.05;7.38;;;24.90;52.60;;;;;;4182303;28;20049;-56
2021/08/22 05:07:54;;;;;;;10.48;6.78;;;24.90;52.60;;;;;;4182390;28;20053;-56
2021/08/22 05:09:56;;;;;;;11.18;8.38;;;24.90;52.60;;;;;;4182297;28;20053;-56
2021/08/22 05:11:59;;;;;;;16.35;8.30;;;24.90;52.60;;;;;;4181901;28;20076;-56
2021/08/22 05:14:01;;;;;;;11.18;6.97;;;24.90;52.60;;;;;;4182162;28;20085;-54
2021/08/22 05:16:05;;;;;;;13.75;7.55;;;24.90;52.50;;;;;;4182275;28;20045;-56
2021/08/22 05:18:07;;;;;;;9.25;6.28;;;24.90;52.50;;;;;;4181381;28;20072;-56
2021/08/22 05:20:10;;;;;;;11.88;6.95;;;24.90;52.60;;;;;;4182099;28;20101;-56
2021/08/22 05:22:12;;;;;;;11.48;7.03;;;24.90;52.50;;;;;;4182389;28;20498;-50
2021/08/22 05:24:14;;;;;;;8.18;6.00;;;24.90;52.80;;;;;;4182518;28;20046;-51
2021/08/22 05:26:16;;;;;;;12.15;7.22;;;24.90;52.60;;;;;;4182388;28;20050;-52
2021/08/22 05:28:18;;;;;;;11.48;6.60;;;24.90;52.60;;;;;;4182492;28;20075;-51
2021/08/22 05:30:20;;;;;;;9.25;6.93;;;24.90;52.50;;;;;;4182339;28;20105;-51
2021/08/22 05:32:22;;;;;;;9.10;6.45;;;24.90;52.50;;;;;;4182488;28;20053;-52
2021/08/22 05:34:24;;;;;;;9.20;6.43;;;24.90;52.60;;;;;;4184823;28;20045;-51
2021/08/22 05:36:26;;;;;;;11.18;6.78;;;24.90;52.60;;;;;;4185681;28;20046;-53
2021/08/22 05:38:28;;;;;;;11.35;5.75;;;24.90;52.60;;;;;;4185631;28;20076;-52
2021/08/22 05:40:30;;;;;;;10.95;6.43;;;24.90;52.50;;;;;;4185704;28;20042;-48
2021/08/22 05:42:32;;;;;;;11.45;6.47;;;24.90;52.60;;;;;;4185592;28;20076;-49
2021/08/22 05:44:34;;;;;;;11.93;6.88;;;24.90;52.60;;;;;;4185631;28;20049;-51
2021/08/22 05:46:36;;;;;;;10.80;5.85;;;24.90;52.60;;;;;;4185544;28;20049;-53
2021/08/22 05:48:39;;;;;;;8.63;5.78;;;24.90;52.70;;;;;;4185553;28;20064;-54
2021/08/22 05:50:41;;;;;;;7.35;5.68;;;24.90;52.70;;;;;;4185335;28;20049;-48
2021/08/22 05:52:43;;;;;;;8.90;6.15;;;24.90;52.70;;;;;;4185353;28;20067;-49
2021/08/22 05:54:45;;;;;;;9.15;5.88;;;24.90;52.70;;;;;;4185393;28;20105;-55
2021/08/22 05:56:47;;;;;;;9.73;5.93;;;24.90;52.80;;;;;;4185279;28;20041;-53
2021/08/22 05:58:49;;;;;;;12.70;6.28;;;24.90;52.80;;;;;;4185400;28;20042;-50
2021/08/22 06:00:51;;;;;;;10.27;5.88;;;24.90;52.80;;;;;;4185391;28;20042;-53
2021/08/22 06:02:53;;;;;;;9.90;6.03;;;24.90;52.80;;;;;;4185446;28;20053;-54
2021/08/22 06:04:56;;;;;;;7.20;6.18;;;24.90;52.80;;;;;;4185278;28;20045;-53
2021/08/22 06:06:58;;;;;;;9.60;6.20;;;24.90;52.80;;;;;;4185148;28;20079;-51
2021/08/22 06:09:00;;;;;;;11.82;6.88;;;24.90;52.90;;;;;;4185300;28;20075;-51
2021/08/22 06:11:03;;;;;;;9.23;6.47;;;24.90;52.90;;;;;;4185009;28;20068;-53
2021/08/22 06:13:05;;;;;;;9.25;5.93;;;25.00;52.90;;;;;;4184417;28;20072;-55
2021/08/22 06:15:07;;;;;;;9.52;7.05;;;25.00;52.80;;;;;;4184796;28;20049;-53
2021/08/22 06:17:10;;;;;;;10.23;5.75;;;25.00;52.70;;;;;;4184886;28;20041;-53
2021/08/22 06:19:12;;;;;;;12.48;9.00;;;25.00;52.80;;;;;;4185110;28;20045;-51
2021/08/22 06:21:14;;;;;;;23.17;9.05;;;25.00;53.80;;;;;;4185151;28;20045;-50
2021/08/22 06:23:16;;;;;;;17.10;8.70;;;24.90;54.30;;;;;;4185176;28;20045;-52
2021/08/22 06:25:18;;;;;;;21.67;10.30;;;24.70;54.50;;;;;;4185232;28;20117;-49
2021/08/22 06:27:20;;;;;;;9.98;6.45;;;24.60;54.60;;;;;;4185074;28;20049;-59
2021/08/22 06:29:22;;;;;;;17.00;8.43;;;24.60;54.70;;;;;;4184051;28;20053;-58
2021/08/22 06:31:24;;;;;;;16.10;8.75;;;24.70;54.40;;;;;;4184640;28;20046;-57
2021/08/22 06:33:26;;;;;;;12.70;8.60;;;24.80;53.90;;;;;;4184995;28;20487;-57
2021/08/22 06:35:28;;;;;;;25.13;8.52;;;24.90;53.90;;;;;;4184962;28;20049;-58
2021/08/22 06:37:30;;;;;;;16.88;8.38;;;24.90;53.90;;;;;;4185063;28;20046;-58
2021/08/22 06:39:38;;;;;;;10.77;8.00;;;24.90;54.00;;;;;;4184994;28;20101;-58
2021/08/22 06:41:40;;;;;;;16.65;8.27;;;24.90;53.80;;;;;;4184978;28;20045;-58
2021/08/22 06:43:42;;;;;;;26.13;8.68;;;25.00;53.60;;;;;;4184866;28;20050;-58
2021/08/22 06:45:44;;;;;;;15.00;8.30;;;24.90;53.40;;;;;;4184642;28;20105;-58
2021/08/22 06:47:48;;;;;;;17.42;7.30;;;25.00;53.40;;;;;;4184909;28;20053;-59
2021/08/22 06:49:50;;;;;;;22.90;8.48;;;25.00;53.60;;;;;;4184822;28;20056;-59
2021/08/22 06:51:52;;;;;;;14.40;7.88;;;25.00;53.30;;;;;;4184820;28;20060;-59
2021/08/22 06:53:55;;;;;;;20.27;8.73;;;24.90;53.40;;;;;;4184778;28;20049;-58
2021/08/22 06:55:57;;;;;;;15.75;8.40;;;24.90;53.20;;;;;;4184778;28;20046;-59
2021/08/22 06:57:59;;;;;;;17.30;8.52;;;25.00;53.40;;;;;;4184733;28;20048;-58
2021/08/22 07:00:01;;;;;;;14.50;8.98;;;24.90;53.20;;;;;;4184626;28;20046;-58
2021/08/22 07:02:04;;;;;;;12.18;8.20;;;24.90;53.20;;;;;;4184767;28;20075;-59
2021/08/22 07:04:12;;;;;;;30.83;9.63;;;24.90;53.10;;;;;;4184126;28;20105;-59
2021/08/22 07:06:15;;;;;;;;;;;24.90;54.40;;;;;;4184621;28;20046;-59
2021/08/22 07:08:17;;;;;;;28.92;9.52;;;25.00;54.50;;;;;;4184250;28;19921;-58
2021/08/22 07:10:20;;;;;;;37.30;9.40;;;25.00;54.60;;;;;;4198084;28;20100;-59
2021/08/22 07:12:22;;;;;;;26.30;9.23;;;25.00;54.70;;;;;;4193081;28;20054;-56
2021/08/22 07:14:57;;;;;;;22.30;7.95;;;25.00;54.90;;;;;;4224601;28;20419;-59
2021/08/22 07:17:00;;;;;;;29.17;8.60;;;25.00;53.90;;;;;;4230629;28;20051;-58
2021/08/22 07:19:02;;;;;;;23.42;8.52;;;25.00;53.90;;;;;;4230745;28;20049;-58
2021/08/22 07:21:06;;;;;;;21.33;8.15;;;25.00;53.80;;;;;;4230617;28;20101;-59
2021/08/22 07:23:08;;;;;;;22.23;8.95;;;25.00;53.80;;;;;;4230494;28;20054;-58
2021/08/22 07:25:10;;;;;;;18.88;8.77;;;25.00;54.10;;;;;;4230441;28;20052;-59
2021/08/22 07:27:13;;;;;;;16.10;7.75;;;25.00;53.80;;;;;;4230483;28;20081;-59
2021/08/22 07:29:15;;;;;;;14.05;7.50;;;25.00;53.70;;;;;;4230499;28;20098;-58
2021/08/22 07:31:17;;;;;;;15.32;7.93;;;25.00;53.70;;;;;;4230312;28;20044;-58
2021/08/22 07:33:19;;;;;;;22.67;8.77;;;25.00;53.60;;;;;;4230256;28;20504;-60
2021/08/22 07:35:21;;;;;;;17.50;7.80;;;25.00;54.10;;;;;;4230132;28;20045;-58
2021/08/22 07:37:23;;;;;;;15.10;7.95;;;25.00;54.20;;;;;;4229822;28;20054;-59
2021/08/22 07:39:25;;;;;;;10.48;7.40;;;25.00;54.20;;;;;;4230076;28;20044;-59
2021/08/22 07:41:27;;;;;;;19.45;8.02;;;25.00;53.90;;;;;;4229985;28;20048;-59
2021/08/22 07:43:29;;;;;;;22.02;8.32;;;25.00;53.10;;;;;;4230032;28;20071;-59
2021/08/22 07:45:31;;;;;;;22.50;8.93;;;24.90;53.50;;;;;;4229891;28;20044;-59
2021/08/22 07:47:33;;;;;;;19.13;8.02;;;24.90;54.00;;;;;;4228628;28;20048;-60
2021/08/22 07:49:35;;;;;;;30.90;9.73;;;24.90;54.10;;;;;;4228619;28;20048;-59
2021/08/22 07:51:37;;;;;;;22.75;8.65;;;24.90;54.10;;;;;;4228828;28;20075;-59
2021/08/22 07:53:39;;;;;;;14.88;7.20;;;24.90;53.60;;;;;;4229446;28;20048;-59
2021/08/22 07:55:41;;;;;;;16.20;7.30;;;24.80;53.00;;;;;;4229312;28;20052;-59
2021/08/22 07:57:43;;;;;;;15.32;7.80;;;24.80;52.90;;;;;;4229159;28;20044;-60
2021/08/22 07:59:45;;;;;;;13.02;7.95;;;24.70;53.10;;;;;;4228838;28;20048;-59
2021/08/22 08:01:47;;;;;;;16.42;7.22;;;24.70;53.10;;;;;;4229928;28;20070;-59
2021/08/22 08:03:49;;;;;;;13.15;7.18;;;24.70;52.60;;;;;;4229569;28;20048;-59
2021/08/22 08:05:54;;;;;;;17.65;7.55;;;24.80;52.70;;;;;;4229492;28;20048;-59
2021/08/22 08:07:55;;;;;;;12.52;7.03;;;24.80;52.90;;;;;;4229427;28;20056;-59
2021/08/22 08:09:57;;;;;;;10.70;7.10;;;24.80;52.10;;;;;;4229242;28;20052;-60
2021/08/22 08:11:59;;;;;;;8.68;7.60;;;24.80;52.60;;;;;;4229172;28;20057;-59
2021/08/22 08:14:01;;;;;;;11.68;7.05;;;24.80;52.70;;;;;;4229100;28;20048;-59
2021/08/22 08:16:03;;;;;;;7.80;6.93;;;24.80;51.80;;;;;;4229332;28;20049;-59
2021/08/22 08:18:06;;;;;;;14.07;7.22;;;24.80;52.40;;;;;;4229047;28;20044;-59
2021/08/22 08:20:08;;;;;;;10.98;6.78;;;24.80;52.40;;;;;;4229238;28;20052;-59
2021/08/22 08:22:11;;;;;;;10.50;7.13;;;24.80;52.40;;;;;;4228927;28;20044;-60
2021/08/22 08:24:13;;;;;;;11.02;7.85;;;24.80;52.40;;;;;;4228872;28;20056;-59
2021/08/22 08:26:15;;;;;;;9.13;6.40;;;24.80;52.20;;;;;;4217413;28;20057;-59
2021/08/22 08:28:17;;;;;;;9.32;6.75;;;24.80;52.30;;;;;;4216896;28;20079;-59
2021/08/22 08:30:19;;;;;;;8.10;6.38;;;24.80;52.00;;;;;;4217435;28;20048;-59
2021/08/22 08:32:21;;;;;;;12.60;6.88;;;24.80;52.30;;;;;;4217420;28;20074;-59
2021/08/22 08:34:23;;;;;;;8.48;6.82;;;24.80;52.30;;;;;;4217342;28;20044;-60
2021/08/22 08:36:25;;;;;;;12.45;6.40;;;24.90;52.10;;;;;;4217747;28;20048;-59
2021/08/22 08:38:27;;;;;;;10.45;7.28;;;24.80;52.20;;;;;;4217442;28;20075;-59
2021/08/22 08:40:29;;;;;;;9.30;6.82;;;24.80;52.20;;;;;;4217255;28;20044;-59
2021/08/22 08:42:39;;;;;;;10.10;6.53;;;24.80;52.10;;;;;;4217488;28;20051;-59
2021/08/22 08:44:42;;;;;;;7.22;6.50;;;24.80;52.20;;;;;;4217594;28;20045;-59
2021/08/22 08:46:52;;;;;;;8.60;6.43;;;24.80;52.10;;;;;;4217120;28;20422;-59
2021/08/22 08:49:15;;;;;;;7.85;6.45;;;24.90;52.20;;;;;;4217225;28;20048;-59
2021/08/22 08:51:32;;;;;;;10.98;7.50;;;24.80;52.10;;;;;;4217018;28;20055;-59
2021/08/22 08:53:58;;;;;;;9.70;6.80;;;24.90;52.20;;;;;;4217342;28;20055;-59
2021/08/22 08:56:07;;;;;;;10.95;6.95;;;24.80;52.10;;;;;;4217476;28;20044;-59
2021/08/22 08:58:09;;;;;;;9.05;7.07;;;24.80;51.80;;;;;;4217463;28;20052;-59
2021/08/22 09:00:24;;;;;;;7.57;6.50;;;24.80;52.00;;;;;;4217641;28;20071;-59
2021/08/22 09:02:26;;;;;;;8.75;6.97;;;24.80;51.50;;;;;;4217571;28;20040;-59
2021/08/22 09:04:34;;;;;;;11.35;6.57;;;24.80;51.60;;;;;;4217365;28;20074;-58
2021/08/22 09:07:01;;;;;;;8.35;6.30;;;24.80;51.50;;;;;;4217458;28;20052;-58
2021/08/22 09:09:34;;;;;;;6.75;5.88;;;24.80;51.40;;;;;;4217298;28;20109;-59
2021/08/22 09:11:54;;;;;;;13.68;6.57;;;24.80;51.20;;;;;;4217116;28;20048;-58
2021/08/22 09:14:34;;;;;;;11.52;6.97;;;24.80;51.50;;;;;;4216798;28;20054;-59
2021/08/22 09:17:13;;;;;;;9.02;6.22;;;24.80;51.50;;;;;;4217045;28;20082;-59
2021/08/22 09:19:40;;;;;;;11.02;6.68;;;24.90;51.30;;;;;;4216409;28;20104;-59
2021/08/22 09:21:57;;;;;;;11.25;6.82;;;24.80;51.50;;;;;;4216405;28;20104;-59
2021/08/22 09:24:29;;;;;;;7.60;6.22;;;24.80;51.60;;;;;;4216518;28;20076;-60
2021/08/22 09:26:41;;;;;;;11.23;7.47;;;24.80;52.10;;;;;;4216349;28;20394;-60
2021/08/22 09:29:20;;;;;;;9.95;6.72;;;24.80;52.10;;;;;;4216288;28;20058;-59
2021/08/22 09:31:59;;;;;;;11.23;6.68;;;24.80;51.90;;;;;;4216697;28;20048;-60
2021/08/22 09:34:32;;;;;;;15.02;6.45;;;24.80;52.20;;;;;;4217089;28;20044;-59
2021/08/22 09:37:09;;;;;;;8.23;5.93;;;24.90;52.10;;;;;;4216417;28;20051;-59
2021/08/22 09:39:49;;;;;;;12.68;6.78;;;24.90;52.10;;;;;;4217104;28;20040;-58
2021/08/22 09:42:42;;;;;;;10.70;7.00;;;24.90;51.80;;;;;;4217200;28;20049;-59
2021/08/22 09:44:46;;;;;;;9.70;6.63;;;25.00;51.80;;;;;;4183727;28;20057;-58
2021/08/22 09:47:02;;;;;;;8.60;6.25;;;25.00;52.00;;;;;;4217196;28;20051;-59
2021/08/22 09:49:43;;;;;;;8.20;6.18;;;25.00;52.00;;;;;;4217057;28;20079;-58
2021/08/22 09:51:57;;;;;;;8.38;6.60;;;25.00;52.10;;;;;;4216981;28;20048;-59
2021/08/22 09:54:23;;;;;;;7.60;6.10;;;25.00;51.90;;;;;;4216910;28;20454;-59
2021/08/22 09:56:50;;;;;;;8.57;5.90;;;25.00;52.00;;;;;;4216850;28;20112;-59
2021/08/22 09:59:04;;;;;;;7.80;5.70;;;25.00;52.10;;;;;;4216814;28;20044;-59
2021/08/22 10:01:43;;;;;;;8.77;6.53;;;25.00;52.20;;;;;;4216937;28;20044;-59
2021/08/22 10:04:22;;;;;;;8.88;6.88;;;25.00;52.10;;;;;;4216708;28;20321;-59
2021/08/22 10:06:30;;;;;;;6.78;5.40;;;25.10;52.10;;;;;;4216728;28;20045;-59
2021/08/22 10:08:41;;;;;;;9.20;6.35;;;25.10;52.20;;;;;;4216394;28;20049;-59
2021/08/22 10:10:48;;;;;;;7.00;6.00;;;25.10;52.20;;;;;;4216570;28;20064;-60
2021/08/22 10:12:50;;;;;;;8.15;5.95;;;25.00;52.10;;;;;;4216603;28;20071;-59
2021/08/22 10:14:53;;;;;;;8.63;5.93;;;25.10;52.20;;;;;;4216312;28;20052;-59
2021/08/22 10:16:56;;;;;;;7.88;6.15;;;25.10;52.30;;;;;;4216500;28;20044;-59
2021/08/22 10:19:08;;;;;;;6.85;6.00;;;25.10;52.20;;;;;;4216498;28;20037;-59
2021/08/22 10:21:11;;;;;;;7.07;5.97;;;25.10;52.20;;;;;;4216492;28;20051;-59
2021/08/22 10:23:32;;;;;;;16.40;7.07;;;25.10;52.30;;;;;;4215904;28;20045;-58
2021/08/22 10:25:52;;;;;;;14.45;6.32;;;25.10;53.00;;;;;;4216482;28;20058;-59
2021/08/22 10:27:58;;;;;;;15.70;6.72;;;25.00;52.80;;;;;;4216114;28;20045;-61
2021/08/22 10:30:03;;;;;;;12.88;6.93;;;25.00;52.70;;;;;;4204073;28;20045;-60
2021/08/22 10:32:06;;;;;;;14.88;6.70;;;25.00;52.60;;;;;;4198017;28;20053;-55
2021/08/22 10:34:18;;;;;;;13.07;7.97;;;25.10;52.30;;;;;;4197852;28;20056;-57
2021/08/22 10:36:30;;;;;;;12.13;7.22;;;25.20;52.20;;;;;;4203912;28;20049;-49
2021/08/22 10:38:31;;;;;;;14.52;7.10;;;25.20;52.10;;;;;;4202578;28;20041;-49
2021/08/22 10:40:34;;;;;;;14.90;6.22;;;25.20;52.10;;;;;;4199051;28;20067;-49
2021/08/22 10:42:36;;;;;;;13.23;5.97;;;25.20;52.10;;;;;;4199118;28;20420;-50
2021/08/22 10:44:40;;;;;;;12.50;5.35;;;25.20;52.10;;;;;;4199243;28;20098;-48
2021/08/22 10:46:46;;;;;;;11.35;6.10;;;25.20;52.20;;;;;;4199602;28;20048;-49
2021/08/22 10:48:49;;;;;;;15.38;5.90;;;25.30;52.10;;;;;;4199182;28;20045;-48
2021/08/22 10:51:02;;;;;;;11.00;6.72;;;25.30;52.10;;;;;;4199408;28;20108;-50